sensor_id;sensor_type;location;lat;lon;timestamp;P1;durP1;ratioP1;P2;durP2;ratioP2
43990;SDS011;29654;50.784;20.604;2022-11-20T00:01:53;35.07;;;19.70;;
43990;SDS011;29654;50.784;20.604;2022-11-20T00:06:56;34.50;;;18.40;;
43990;SDS011;29654;50.784;20.604;2022-11-20T00:12:01;32.53;;;18.40;;
43990;SDS011;29654;50.784;20.604;2022-11-20T00:17:05;33.27;;;18.50;;
43990;SDS011;29654;50.784;20.604;2022-11-20T00:22:08;34.77;;;19.27;;
43990;SDS011;29654;50.784;20.604;2022-11-20T00:27:13;35.30;;;18.60;;
43990;SDS011;29654;50.784;20.604;2022-11-20T00:32:16;33.00;;;18.37;;
43990;SDS011;29654;50.784;20.604;2022-11-20T00:37:20;34.23;;;19.77;;
43990;SDS011;29654;50.784;20.604;2022-11-20T00:42:27;37.87;;;19.37;;
43990;SDS011;29654;50.784;20.604;2022-11-20T00:47:34;29.47;;;18.20;;
43990;SDS011;29654;50.784;20.604;2022-11-20T00:52:36;33.77;;;19.13;;
43990;SDS011;29654;50.784;20.604;2022-11-20T00:57:42;34.83;;;18.17;;
43990;SDS011;29654;50.784;20.604;2022-11-20T01:02:46;32.23;;;17.67;;
43990;SDS011;29654;50.784;20.604;2022-11-20T01:07:49;31.70;;;18.13;;
43990;SDS011;29654;50.784;20.604;2022-11-20T01:12:55;30.50;;;17.73;;
43990;SDS011;29654;50.784;20.604;2022-11-20T01:18:13;34.93;;;18.93;;
43990;SDS011;29654;50.784;20.604;2022-11-20T01:23:16;31.83;;;17.27;;
43990;SDS011;29654;50.784;20.604;2022-11-20T01:28:20;33.17;;;17.20;;
43990;SDS011;29654;50.784;20.604;2022-11-20T01:33:24;31.30;;;16.93;;
43990;SDS011;29654;50.784;20.604;2022-11-20T01:38:29;29.90;;;17.03;;
43990;SDS011;29654;50.784;20.604;2022-11-20T01:43:36;27.30;;;17.37;;
43990;SDS011;29654;50.784;20.604;2022-11-20T01:48:42;26.63;;;15.93;;
43990;SDS011;29654;50.784;20.604;2022-11-20T01:53:52;30.03;;;16.23;;
43990;SDS011;29654;50.784;20.604;2022-11-20T01:59:02;29.93;;;17.07;;
43990;SDS011;29654;50.784;20.604;2022-11-20T02:04:10;27.70;;;15.87;;
43990;SDS011;29654;50.784;20.604;2022-11-20T02:09:15;25.13;;;15.33;;
43990;SDS011;29654;50.784;20.604;2022-11-20T02:14:19;25.13;;;14.90;;
43990;SDS011;29654;50.784;20.604;2022-11-20T02:19:28;28.63;;;15.87;;
43990;SDS011;29654;50.784;20.604;2022-11-20T02:24:34;27.40;;;15.53;;
43990;SDS011;29654;50.784;20.604;2022-11-20T02:29:38;31.70;;;18.03;;
43990;SDS011;29654;50.784;20.604;2022-11-20T02:34:45;31.10;;;16.70;;
43990;SDS011;29654;50.784;20.604;2022-11-20T02:39:50;30.37;;;16.90;;
43990;SDS011;29654;50.784;20.604;2022-11-20T02:44:53;27.93;;;15.83;;
43990;SDS011;29654;50.784;20.604;2022-11-20T02:49:56;26.37;;;15.67;;
43990;SDS011;29654;50.784;20.604;2022-11-20T02:55:01;30.03;;;16.47;;
43990;SDS011;29654;50.784;20.604;2022-11-20T03:00:04;26.03;;;14.70;;
43990;SDS011;29654;50.784;20.604;2022-11-20T03:05:08;26.07;;;16.93;;
43990;SDS011;29654;50.784;20.604;2022-11-20T03:10:12;28.83;;;16.27;;
43990;SDS011;29654;50.784;20.604;2022-11-20T03:15:15;28.50;;;16.27;;
43990;SDS011;29654;50.784;20.604;2022-11-20T03:20:18;33.50;;;19.00;;
43990;SDS011;29654;50.784;20.604;2022-11-20T03:25:22;36.13;;;19.87;;
43990;SDS011;29654;50.784;20.604;2022-11-20T03:30:25;36.63;;;21.87;;
43990;SDS011;29654;50.784;20.604;2022-11-20T03:35:28;32.93;;;19.90;;
43990;SDS011;29654;50.784;20.604;2022-11-20T03:40:32;31.73;;;19.63;;
43990;SDS011;29654;50.784;20.604;2022-11-20T03:45:36;31.27;;;19.60;;
43990;SDS011;29654;50.784;20.604;2022-11-20T03:50:39;34.73;;;20.27;;
43990;SDS011;29654;50.784;20.604;2022-11-20T03:55:43;35.07;;;19.93;;
43990;SDS011;29654;50.784;20.604;2022-11-20T04:00:45;27.83;;;18.73;;
43990;SDS011;29654;50.784;20.604;2022-11-20T04:05:48;29.80;;;18.83;;
43990;SDS011;29654;50.784;20.604;2022-11-20T04:10:52;33.60;;;18.00;;
43990;SDS011;29654;50.784;20.604;2022-11-20T04:15:56;28.37;;;16.90;;
43990;SDS011;29654;50.784;20.604;2022-11-20T04:20:59;28.93;;;18.33;;
43990;SDS011;29654;50.784;20.604;2022-11-20T04:26:05;28.97;;;17.97;;
43990;SDS011;29654;50.784;20.604;2022-11-20T04:31:10;29.37;;;18.77;;
43990;SDS011;29654;50.784;20.604;2022-11-20T04:36:15;33.67;;;19.53;;
43990;SDS011;29654;50.784;20.604;2022-11-20T04:41:22;34.50;;;18.67;;
43990;SDS011;29654;50.784;20.604;2022-11-20T04:46:26;35.20;;;18.63;;
43990;SDS011;29654;50.784;20.604;2022-11-20T04:51:30;32.77;;;18.90;;
43990;SDS011;29654;50.784;20.604;2022-11-20T04:56:34;36.77;;;20.10;;
43990;SDS011;29654;50.784;20.604;2022-11-20T05:01:37;34.53;;;20.33;;
43990;SDS011;29654;50.784;20.604;2022-11-20T05:06:40;37.73;;;20.03;;
43990;SDS011;29654;50.784;20.604;2022-11-20T05:11:44;39.80;;;19.30;;
43990;SDS011;29654;50.784;20.604;2022-11-20T05:16:47;38.43;;;20.80;;
43990;SDS011;29654;50.784;20.604;2022-11-20T05:21:50;45.27;;;21.10;;
43990;SDS011;29654;50.784;20.604;2022-11-20T05:26:54;43.20;;;19.57;;
43990;SDS011;29654;50.784;20.604;2022-11-20T05:31:57;52.03;;;21.60;;
43990;SDS011;29654;50.784;20.604;2022-11-20T05:37:00;39.87;;;20.23;;
43990;SDS011;29654;50.784;20.604;2022-11-20T05:42:05;48.60;;;20.47;;
43990;SDS011;29654;50.784;20.604;2022-11-20T05:47:25;46.70;;;19.83;;
43990;SDS011;29654;50.784;20.604;2022-11-20T05:52:28;37.67;;;18.70;;
43990;SDS011;29654;50.784;20.604;2022-11-20T05:57:32;52.40;;;20.00;;
43990;SDS011;29654;50.784;20.604;2022-11-20T06:02:35;44.67;;;19.83;;
43990;SDS011;29654;50.784;20.604;2022-11-20T06:07:38;52.17;;;18.70;;
43990;SDS011;29654;50.784;20.604;2022-11-20T06:12:42;60.90;;;19.17;;
43990;SDS011;29654;50.784;20.604;2022-11-20T06:17:45;41.37;;;18.23;;
43990;SDS011;29654;50.784;20.604;2022-11-20T06:22:48;41.00;;;17.30;;
43990;SDS011;29654;50.784;20.604;2022-11-20T06:27:52;53.50;;;19.57;;
43990;SDS011;29654;50.784;20.604;2022-11-20T06:32:55;37.27;;;17.43;;
43990;SDS011;29654;50.784;20.604;2022-11-20T06:37:57;56.90;;;19.37;;
43990;SDS011;29654;50.784;20.604;2022-11-20T06:43:03;47.07;;;18.20;;
43990;SDS011;29654;50.784;20.604;2022-11-20T06:48:06;54.10;;;19.43;;
43990;SDS011;29654;50.784;20.604;2022-11-20T06:53:10;37.93;;;17.30;;
43990;SDS011;29654;50.784;20.604;2022-11-20T06:58:14;45.17;;;19.67;;
43990;SDS011;29654;50.784;20.604;2022-11-20T07:03:18;35.30;;;17.83;;
43990;SDS011;29654;50.784;20.604;2022-11-20T07:08:21;35.97;;;18.50;;
43990;SDS011;29654;50.784;20.604;2022-11-20T07:13:26;33.57;;;17.80;;
43990;SDS011;29654;50.784;20.604;2022-11-20T07:18:29;30.73;;;17.67;;
43990;SDS011;29654;50.784;20.604;2022-11-20T07:23:33;38.47;;;18.50;;
43990;SDS011;29654;50.784;20.604;2022-11-20T07:28:37;34.07;;;17.83;;
43990;SDS011;29654;50.784;20.604;2022-11-20T07:33:40;40.40;;;18.60;;
43990;SDS011;29654;50.784;20.604;2022-11-20T07:38:43;47.63;;;19.93;;
43990;SDS011;29654;50.784;20.604;2022-11-20T07:43:48;38.17;;;19.80;;
43990;SDS011;29654;50.784;20.604;2022-11-20T07:48:51;40.40;;;19.83;;
43990;SDS011;29654;50.784;20.604;2022-11-20T07:53:53;35.10;;;18.83;;
43990;SDS011;29654;50.784;20.604;2022-11-20T07:58:58;41.47;;;22.13;;
43990;SDS011;29654;50.784;20.604;2022-11-20T08:04:00;37.83;;;20.83;;
43990;SDS011;29654;50.784;20.604;2022-11-20T08:09:03;41.00;;;21.60;;
43990;SDS011;29654;50.784;20.604;2022-11-20T08:14:08;37.87;;;22.10;;
43990;SDS011;29654;50.784;20.604;2022-11-20T08:19:14;37.10;;;20.07;;
43990;SDS011;29654;50.784;20.604;2022-11-20T08:24:18;33.80;;;18.97;;
43990;SDS011;29654;50.784;20.604;2022-11-20T08:29:22;39.07;;;20.63;;
43990;SDS011;29654;50.784;20.604;2022-11-20T08:34:25;47.87;;;23.83;;
43990;SDS011;29654;50.784;20.604;2022-11-20T08:39:27;42.50;;;25.47;;
43990;SDS011;29654;50.784;20.604;2022-11-20T08:44:31;41.80;;;24.27;;
43990;SDS011;29654;50.784;20.604;2022-11-20T08:49:35;46.97;;;24.73;;
43990;SDS011;29654;50.784;20.604;2022-11-20T08:54:37;39.93;;;22.97;;
43990;SDS011;29654;50.784;20.604;2022-11-20T08:59:42;33.67;;;20.10;;
43990;SDS011;29654;50.784;20.604;2022-11-20T09:04:45;38.28;;;23.27;;
43990;SDS011;29654;50.784;20.604;2022-11-20T09:09:48;39.80;;;22.97;;
43990;SDS011;29654;50.784;20.604;2022-11-20T09:14:52;37.43;;;21.27;;
43990;SDS011;29654;50.784;20.604;2022-11-20T09:19:56;34.13;;;20.87;;
43990;SDS011;29654;50.784;20.604;2022-11-20T09:24:59;31.95;;;18.83;;
43990;SDS011;29654;50.784;20.604;2022-11-20T09:30:03;30.63;;;18.83;;
43990;SDS011;29654;50.784;20.604;2022-11-20T09:35:08;33.95;;;20.23;;
43990;SDS011;29654;50.784;20.604;2022-11-20T09:40:16;32.75;;;20.15;;
43990;SDS011;29654;50.784;20.604;2022-11-20T09:45:24;33.85;;;19.60;;
43990;SDS011;29654;50.784;20.604;2022-11-20T09:50:42;33.67;;;20.75;;
43990;SDS011;29654;50.784;20.604;2022-11-20T09:55:50;32.05;;;19.88;;
43990;SDS011;29654;50.784;20.604;2022-11-20T10:00:55;34.80;;;19.90;;
43990;SDS011;29654;50.784;20.604;2022-11-20T10:06:04;35.90;;;22.25;;
43990;SDS011;29654;50.784;20.604;2022-11-20T10:11:17;33.60;;;21.17;;
43990;SDS011;29654;50.784;20.604;2022-11-20T10:16:32;42.47;;;24.45;;
43990;SDS011;29654;50.784;20.604;2022-11-20T10:21:49;36.08;;;23.08;;
43990;SDS011;29654;50.784;20.604;2022-11-20T10:27:03;39.63;;;24.45;;
43990;SDS011;29654;50.784;20.604;2022-11-20T10:32:41;33.45;;;22.92;;
43990;SDS011;29654;50.784;20.604;2022-11-20T10:37:47;35.10;;;22.60;;
43990;SDS011;29654;50.784;20.604;2022-11-20T10:42:55;38.30;;;24.90;;
43990;SDS011;29654;50.784;20.604;2022-11-20T10:48:07;39.08;;;25.13;;
43990;SDS011;29654;50.784;20.604;2022-11-20T10:53:19;44.85;;;29.42;;
43990;SDS011;29654;50.784;20.604;2022-11-20T10:58:40;46.28;;;28.10;;
43990;SDS011;29654;50.784;20.604;2022-11-20T11:03:56;46.42;;;28.92;;
43990;SDS011;29654;50.784;20.604;2022-11-20T11:09:01;46.25;;;29.42;;
43990;SDS011;29654;50.784;20.604;2022-11-20T11:14:13;44.15;;;27.02;;
43990;SDS011;29654;50.784;20.604;2022-11-20T11:19:18;39.70;;;24.92;;
43990;SDS011;29654;50.784;20.604;2022-11-20T11:24:21;40.83;;;25.55;;
43990;SDS011;29654;50.784;20.604;2022-11-20T11:29:26;40.58;;;26.08;;
43990;SDS011;29654;50.784;20.604;2022-11-20T11:34:32;39.30;;;26.15;;
43990;SDS011;29654;50.784;20.604;2022-11-20T11:39:35;34.00;;;24.23;;
43990;SDS011;29654;50.784;20.604;2022-11-20T11:44:43;35.90;;;23.15;;
43990;SDS011;29654;50.784;20.604;2022-11-20T11:50:15;37.63;;;24.38;;
43990;SDS011;29654;50.784;20.604;2022-11-20T11:55:24;35.50;;;24.42;;
43990;SDS011;29654;50.784;20.604;2022-11-20T12:00:33;37.55;;;25.23;;
43990;SDS011;29654;50.784;20.604;2022-11-20T12:05:43;37.70;;;24.70;;
43990;SDS011;29654;50.784;20.604;2022-11-20T12:10:52;36.00;;;24.88;;
43990;SDS011;29654;50.784;20.604;2022-11-20T12:16:00;38.15;;;25.40;;
43990;SDS011;29654;50.784;20.604;2022-11-20T12:21:09;36.55;;;23.05;;
43990;SDS011;29654;50.784;20.604;2022-11-20T12:26:26;33.65;;;23.25;;
43990;SDS011;29654;50.784;20.604;2022-11-20T12:31:54;37.50;;;24.52;;
43990;SDS011;29654;50.784;20.604;2022-11-20T12:37:24;36.65;;;24.17;;
43990;SDS011;29654;50.784;20.604;2022-11-20T12:42:41;37.40;;;24.63;;
43990;SDS011;29654;50.784;20.604;2022-11-20T12:48:20;38.53;;;25.40;;
43990;SDS011;29654;50.784;20.604;2022-11-20T12:53:40;39.60;;;26.15;;
43990;SDS011;29654;50.784;20.604;2022-11-20T12:58:56;37.85;;;24.58;;
43990;SDS011;29654;50.784;20.604;2022-11-20T13:04:21;37.15;;;23.88;;
43990;SDS011;29654;50.784;20.604;2022-11-20T13:09:43;34.97;;;23.33;;
43990;SDS011;29654;50.784;20.604;2022-11-20T13:14:50;35.25;;;23.60;;
43990;SDS011;29654;50.784;20.604;2022-11-20T13:20:01;35.05;;;23.52;;
43990;SDS011;29654;50.784;20.604;2022-11-20T13:25:10;34.95;;;24.80;;
43990;SDS011;29654;50.784;20.604;2022-11-20T13:30:25;37.70;;;24.33;;
43990;SDS011;29654;50.784;20.604;2022-11-20T13:35:30;41.67;;;26.27;;
43990;SDS011;29654;50.784;20.604;2022-11-20T13:40:37;37.85;;;27.00;;
43990;SDS011;29654;50.784;20.604;2022-11-20T13:45:59;36.08;;;23.40;;
43990;SDS011;29654;50.784;20.604;2022-11-20T13:51:06;43.67;;;28.25;;
43990;SDS011;29654;50.784;20.604;2022-11-20T13:56:24;37.38;;;25.65;;
43990;SDS011;29654;50.784;20.604;2022-11-20T14:01:36;64.82;;;42.10;;
43990;SDS011;29654;50.784;20.604;2022-11-20T14:06:41;56.17;;;35.63;;
43990;SDS011;29654;50.784;20.604;2022-11-20T14:11:47;63.45;;;37.65;;
43990;SDS011;29654;50.784;20.604;2022-11-20T14:16:50;60.47;;;38.05;;
43990;SDS011;29654;50.784;20.604;2022-11-20T14:21:54;56.28;;;37.15;;
43990;SDS011;29654;50.784;20.604;2022-11-20T14:27:13;43.60;;;29.23;;
43990;SDS011;29654;50.784;20.604;2022-11-20T14:32:19;41.08;;;27.08;;
43990;SDS011;29654;50.784;20.604;2022-11-20T14:37:25;45.17;;;27.45;;
43990;SDS011;29654;50.784;20.604;2022-11-20T14:42:34;48.40;;;31.88;;
43990;SDS011;29654;50.784;20.604;2022-11-20T14:47:37;52.13;;;32.28;;
43990;SDS011;29654;50.784;20.604;2022-11-20T14:52:49;49.75;;;30.92;;
43990;SDS011;29654;50.784;20.604;2022-11-20T15:03:30;50.38;;;31.80;;
43990;SDS011;29654;50.784;20.604;2022-11-20T15:08:34;54.10;;;31.85;;
43990;SDS011;29654;50.784;20.604;2022-11-20T15:13:38;53.63;;;31.13;;
43990;SDS011;29654;50.784;20.604;2022-11-20T15:18:41;55.20;;;32.85;;
43990;SDS011;29654;50.784;20.604;2022-11-20T15:23:44;61.25;;;35.45;;
43990;SDS011;29654;50.784;20.604;2022-11-20T15:28:49;55.85;;;34.85;;
43990;SDS011;29654;50.784;20.604;2022-11-20T15:33:52;51.65;;;32.50;;
43990;SDS011;29654;50.784;20.604;2022-11-20T15:38:55;50.38;;;29.35;;
43990;SDS011;29654;50.784;20.604;2022-11-20T15:43:59;47.55;;;29.42;;
43990;SDS011;29654;50.784;20.604;2022-11-20T15:49:02;44.25;;;28.15;;
43990;SDS011;29654;50.784;20.604;2022-11-20T15:54:08;51.63;;;29.95;;
43990;SDS011;29654;50.784;20.604;2022-11-20T15:59:15;48.53;;;31.42;;
43990;SDS011;29654;50.784;20.604;2022-11-20T16:04:18;45.38;;;28.02;;
43990;SDS011;29654;50.784;20.604;2022-11-20T16:09:21;56.30;;;35.70;;
43990;SDS011;29654;50.784;20.604;2022-11-20T16:14:25;56.47;;;33.40;;
43990;SDS011;29654;50.784;20.604;2022-11-20T16:19:45;55.30;;;31.50;;
43990;SDS011;29654;50.784;20.604;2022-11-20T16:24:48;77.70;;;45.73;;
43990;SDS011;29654;50.784;20.604;2022-11-20T16:29:52;65.25;;;37.83;;
43990;SDS011;29654;50.784;20.604;2022-11-20T16:34:55;73.90;;;44.80;;
43990;SDS011;29654;50.784;20.604;2022-11-20T16:39:57;69.70;;;41.05;;
43990;SDS011;29654;50.784;20.604;2022-11-20T16:45:02;58.08;;;34.25;;
43990;SDS011;29654;50.784;20.604;2022-11-20T16:50:06;47.67;;;28.80;;
43990;SDS011;29654;50.784;20.604;2022-11-20T16:55:09;50.13;;;31.57;;
43990;SDS011;29654;50.784;20.604;2022-11-20T17:00:14;50.20;;;32.50;;
43990;SDS011;29654;50.784;20.604;2022-11-20T17:05:17;42.72;;;28.83;;
43990;SDS011;29654;50.784;20.604;2022-11-20T17:10:20;54.38;;;32.75;;
43990;SDS011;29654;50.784;20.604;2022-11-20T17:15:24;47.78;;;28.88;;
43990;SDS011;29654;50.784;20.604;2022-11-20T17:20:27;43.53;;;28.95;;
43990;SDS011;29654;50.784;20.604;2022-11-20T17:25:31;47.38;;;28.70;;
43990;SDS011;29654;50.784;20.604;2022-11-20T17:30:36;47.50;;;28.88;;
43990;SDS011;29654;50.784;20.604;2022-11-20T17:35:39;44.00;;;28.75;;
43990;SDS011;29654;50.784;20.604;2022-11-20T17:40:41;41.45;;;26.15;;
43990;SDS011;29654;50.784;20.604;2022-11-20T17:45:46;39.70;;;25.08;;
43990;SDS011;29654;50.784;20.604;2022-11-20T17:50:49;45.40;;;28.50;;
43990;SDS011;29654;50.784;20.604;2022-11-20T17:55:55;43.10;;;27.40;;
43990;SDS011;29654;50.784;20.604;2022-11-20T18:01:17;44.03;;;27.48;;
43990;SDS011;29654;50.784;20.604;2022-11-20T18:06:21;47.95;;;28.98;;
43990;SDS011;29654;50.784;20.604;2022-11-20T18:11:27;43.03;;;29.05;;
43990;SDS011;29654;50.784;20.604;2022-11-20T18:16:35;46.13;;;28.60;;
43990;SDS011;29654;50.784;20.604;2022-11-20T18:21:42;43.20;;;27.15;;
43990;SDS011;29654;50.784;20.604;2022-11-20T18:26:45;48.30;;;30.27;;
43990;SDS011;29654;50.784;20.604;2022-11-20T18:31:53;41.05;;;27.95;;
43990;SDS011;29654;50.784;20.604;2022-11-20T18:36:56;46.63;;;29.00;;
43990;SDS011;29654;50.784;20.604;2022-11-20T18:41:59;45.42;;;29.48;;
43990;SDS011;29654;50.784;20.604;2022-11-20T18:47:21;49.42;;;29.65;;
43990;SDS011;29654;50.784;20.604;2022-11-20T18:52:27;50.72;;;29.27;;
43990;SDS011;29654;50.784;20.604;2022-11-20T18:57:33;48.25;;;29.33;;
43990;SDS011;29654;50.784;20.604;2022-11-20T19:02:37;48.47;;;30.67;;
43990;SDS011;29654;50.784;20.604;2022-11-20T19:07:40;46.50;;;30.38;;
43990;SDS011;29654;50.784;20.604;2022-11-20T19:12:43;53.95;;;33.65;;
43990;SDS011;29654;50.784;20.604;2022-11-20T19:17:48;46.80;;;31.33;;
43990;SDS011;29654;50.784;20.604;2022-11-20T19:22:51;49.40;;;31.10;;
43990;SDS011;29654;50.784;20.604;2022-11-20T19:27:54;45.50;;;29.92;;
43990;SDS011;29654;50.784;20.604;2022-11-20T19:32:58;48.58;;;32.10;;
43990;SDS011;29654;50.784;20.604;2022-11-20T19:38:00;48.30;;;31.65;;
43990;SDS011;29654;50.784;20.604;2022-11-20T19:43:04;53.30;;;33.40;;
43990;SDS011;29654;50.784;20.604;2022-11-20T19:48:12;48.78;;;31.63;;
43990;SDS011;29654;50.784;20.604;2022-11-20T19:53:20;46.60;;;31.23;;
43990;SDS011;29654;50.784;20.604;2022-11-20T19:58:23;52.05;;;31.98;;
43990;SDS011;29654;50.784;20.604;2022-11-20T20:03:27;49.28;;;33.40;;
43990;SDS011;29654;50.784;20.604;2022-11-20T20:08:32;48.33;;;32.60;;
43990;SDS011;29654;50.784;20.604;2022-11-20T20:13:35;52.20;;;34.05;;
43990;SDS011;29654;50.784;20.604;2022-11-20T20:18:39;49.47;;;32.92;;
43990;SDS011;29654;50.784;20.604;2022-11-20T20:23:42;49.05;;;33.35;;
43990;SDS011;29654;50.784;20.604;2022-11-20T20:28:47;48.97;;;33.33;;
43990;SDS011;29654;50.784;20.604;2022-11-20T20:33:51;48.60;;;33.90;;
43990;SDS011;29654;50.784;20.604;2022-11-20T20:38:55;47.72;;;33.92;;
43990;SDS011;29654;50.784;20.604;2022-11-20T20:44:01;50.33;;;34.58;;
43990;SDS011;29654;50.784;20.604;2022-11-20T20:49:23;44.45;;;31.58;;
43990;SDS011;29654;50.784;20.604;2022-11-20T20:54:26;47.30;;;31.90;;
43990;SDS011;29654;50.784;20.604;2022-11-20T20:59:28;48.28;;;31.33;;
43990;SDS011;29654;50.784;20.604;2022-11-20T21:04:34;50.50;;;34.95;;
43990;SDS011;29654;50.784;20.604;2022-11-20T21:09:38;52.38;;;34.80;;
43990;SDS011;29654;50.784;20.604;2022-11-20T21:14:42;53.80;;;33.67;;
43990;SDS011;29654;50.784;20.604;2022-11-20T21:19:46;49.65;;;32.35;;
43990;SDS011;29654;50.784;20.604;2022-11-20T21:24:49;47.80;;;31.95;;
43990;SDS011;29654;50.784;20.604;2022-11-20T21:29:53;48.22;;;32.25;;
43990;SDS011;29654;50.784;20.604;2022-11-20T21:34:58;42.63;;;29.50;;
43990;SDS011;29654;50.784;20.604;2022-11-20T21:40:00;47.70;;;32.13;;
43990;SDS011;29654;50.784;20.604;2022-11-20T21:45:04;48.95;;;32.17;;
43990;SDS011;29654;50.784;20.604;2022-11-20T21:50:10;47.42;;;30.80;;
43990;SDS011;29654;50.784;20.604;2022-11-20T21:55:16;46.60;;;31.63;;
43990;SDS011;29654;50.784;20.604;2022-11-20T22:00:22;44.40;;;31.33;;
43990;SDS011;29654;50.784;20.604;2022-11-20T22:05:31;45.50;;;32.35;;
43990;SDS011;29654;50.784;20.604;2022-11-20T22:10:38;53.47;;;37.63;;
43990;SDS011;29654;50.784;20.604;2022-11-20T22:15:45;54.30;;;35.85;;
43990;SDS011;29654;50.784;20.604;2022-11-20T22:20:54;49.85;;;32.67;;
43990;SDS011;29654;50.784;20.604;2022-11-20T22:26:01;47.83;;;31.23;;
43990;SDS011;29654;50.784;20.604;2022-11-20T22:31:08;43.90;;;30.55;;
43990;SDS011;29654;50.784;20.604;2022-11-20T22:36:17;44.97;;;31.25;;
43990;SDS011;29654;50.784;20.604;2022-11-20T22:41:24;51.60;;;32.72;;
43990;SDS011;29654;50.784;20.604;2022-11-20T22:46:31;42.80;;;30.35;;
43990;SDS011;29654;50.784;20.604;2022-11-20T22:51:37;51.63;;;32.67;;
43990;SDS011;29654;50.784;20.604;2022-11-20T22:56:41;46.75;;;31.00;;
43990;SDS011;29654;50.784;20.604;2022-11-20T23:01:44;47.47;;;31.73;;
43990;SDS011;29654;50.784;20.604;2022-11-20T23:06:49;44.92;;;32.42;;
43990;SDS011;29654;50.784;20.604;2022-11-20T23:11:51;48.22;;;31.83;;
43990;SDS011;29654;50.784;20.604;2022-11-20T23:16:54;46.25;;;30.85;;
43990;SDS011;29654;50.784;20.604;2022-11-20T23:21:58;44.97;;;30.42;;
43990;SDS011;29654;50.784;20.604;2022-11-20T23:27:01;46.33;;;31.13;;
43990;SDS011;29654;50.784;20.604;2022-11-20T23:32:03;44.10;;;29.20;;
43990;SDS011;29654;50.784;20.604;2022-11-20T23:37:07;46.88;;;32.63;;
43990;SDS011;29654;50.784;20.604;2022-11-20T23:42:10;50.17;;;33.35;;
43990;SDS011;29654;50.784;20.604;2022-11-20T23:47:13;47.83;;;32.75;;
43990;SDS011;29654;50.784;20.604;2022-11-20T23:52:18;48.30;;;32.33;;
43990;SDS011;29654;50.784;20.604;2022-11-20T23:57:25;46.35;;;30.73;;
